Impacts METAR Board
IDs:

KCLE - Cleveland/Hopkins In, OH, US

Updated at: 1800 UTC 24 Sep 2018
Potential Impact None Slight Moderate High
Time 24/06Z 24/07Z 24/08Z 24/09Z 24/10Z 24/11Z 24/12Z 24/13Z 24/14Z 24/15Z 24/16Z 24/17Z 24/18Z
Temp58 59 58 58 58 58 59 60 63 67 69 71 70
Dewpt54 54 54 54 54 54 55 56 57 59 59 60 61
Altim30.22 30.21 30.21 30.21 30.21 30.22 30.22 30.23 30.22 30.21 30.20 30.20 30.19
VIS10 10 10 10 10 10 10 10 10 10 10 10 10
CIG250 -- -- -- -- -- -- 250 250 250 200 200 29
CoverBKNSCTFEWFEWFEWFEWFEWBKNBKNBKNBKNBKNOVC
FltCatVFRVFRVFRVFRVFRVFRVFRVFRVFRVFRVFRVFRMVFR
WX--------------------------
WDir11010090110120110110120120140140150150
WSpd4 5 4 5 8 9 7 7 8 11 12 12 11
WGst-- -- -- -- -- -- -- -- -- -- -- -- --
Raw hourly METARs
KCLE 240551Z 11004KT 10SM BKN250 14/12 A3022 RMK AO2 SLP233 T01440122 10183 20139 58002 $
KCLE 240651Z 10005KT 10SM SCT250 15/12 A3021 RMK AO2 SLP228 T01500122 $
KCLE 240751Z 09004KT 10SM FEW250 14/12 A3021 RMK AO2 SLP226 T01440122 $
KCLE 240851Z 11005KT 10SM FEW250 14/12 A3021 RMK AO2 SLP226 T01440122 56006 $
KCLE 240951Z 12008KT 10SM FEW250 14/12 A3021 RMK AO2 SLP228 T01440122 $
KCLE 241051Z 11009KT 10SM FEW015 FEW250 14/12 A3022 RMK AO2 SLP232 T01440122 $
KCLE 241151Z 11007KT 10SM FEW060 FEW250 15/13 A3022 RMK AO2 SLP231 T01500128 10150 20139 50004 $
KCLE 241251Z 12007KT 10SM FEW060 BKN250 16/13 A3023 RMK AO2 SLP235 T01560133 $
KCLE 241351Z 12008KT 10SM BKN250 17/14 A3022 RMK AO2 SLP231 T01720139 $
KCLE 241451Z 14011KT 10SM BKN250 19/15 A3021 RMK AO2 SLP227 T01940150 58004 $
KCLE 241551Z 14012KT 10SM FEW040 BKN200 21/15 A3020 RMK AO2 SLP223 T02060150 $
KCLE 241651Z 15012KT 10SM SCT023 BKN200 22/16 A3020 RMK AO2 SLP223 T02170156 $
KCLE 241751Z 15011KT 10SM SCT022 BKN029 OVC041 21/16 A3019 RMK AO2 SLP221 T02110161 10222 20150 57006 $



Page loaded:  18:07 UTC  |   11:07 AM Pacific  |   12:07 PM Mountain  |   01:07 PM Central  |   02:07 PM Eastern

 

ADVISORIES

FORECASTS

FORECASTS

OBSERVATIONS

USER TOOLS

ABOUT US